Terminal Aerodrome Forecast
Issued by NWS

Home | Current Version | Previous Version | Text Only | Print | Product List | Glossary On
Versions: 1 2 3 4 5 6 7 8 9 10 11 12 13 14 15 16 17 18 19 20 21 22 23 24 25
000
FTUS43 KDLH 160500
TAFBRD
TAF
KBRD 160520Z 1606/1706 VRB03KT P6SM OVC080
     FM160900 10008KT 6SM -SN BKN050 OVC080
     FM161200 09012G18KT 3SM -SN BKN025 OVC050
     FM161400 08015G22KT 1SM -SN BKN012 OVC025
      TEMPO 1615/1619 1/2SM SN VV008
     FM161900 07015G22KT 1SM -SN OVC008
     FM170100 03014G19KT 3SM -SN OVC012=

USA.gov is the U.S. government's official web portal to all federal, state and local government web resources and services.